Time;durP1;ratioP1;P1;durP2;ratioP2;P2;SDS_P1;SDS_P2;PMS_P1;PMS_P2;Temp;Humidity;BMP_temperature;BMP_pressure;BME280_temperature;BME280_humidity;BME280_pressure;Samples;Min_cycle;Max_cycle;Signal;HPM_P1;HPM_P2
2022/11/19 00:01:05;;;;;;;16.50;14.80;;;;;21.60;99626.00;;;;2062820;28;20234;-50
2022/11/19 00:02:05;;;;;;;18.20;15.93;;;;;21.60;99632.00;;;;2060608;28;20254;-50
2022/11/19 00:03:06;;;;;;;18.83;16.10;;;;;21.40;99632.00;;;;2062840;28;20593;-49
2022/11/19 00:04:06;;;;;;;15.67;13.97;;;;;21.60;99640.00;;;;2062755;28;20353;-49
2022/11/19 00:05:07;;;;;;;15.30;13.70;;;;;21.60;99635.00;;;;2062853;28;20225;-50
2022/11/19 00:06:09;;;;;;;14.13;12.53;;;;;21.60;99640.00;;;;2062488;28;20656;-50
2022/11/19 00:07:09;;;;;;;16.98;14.85;;;;;21.60;99645.00;;;;2061807;28;20309;-49
2022/11/19 00:08:10;;;;;;;16.70;14.50;;;;;21.60;99639.00;;;;2062700;28;20698;-49
2022/11/19 00:09:13;;;;;;;15.70;13.93;;;;;21.60;99655.00;;;;2062513;28;20625;-50
2022/11/19 00:10:13;;;;;;;15.63;13.45;;;;;21.60;99648.00;;;;2062388;28;20211;-49
2022/11/19 00:11:15;;;;;;;15.53;13.30;;;;;21.60;99643.00;;;;2062753;28;20307;-50
2022/11/19 00:13:34;;;;;;;13.13;11.73;;;;;21.60;99652.00;;;;2062260;28;20564;-51
2022/11/19 00:14:35;;;;;;;14.47;12.97;;;;;21.50;99649.00;;;;2062435;28;20218;-51
2022/11/19 00:15:35;;;;;;;13.03;11.73;;;;;21.50;99649.00;;;;2062865;28;20207;-51
2022/11/19 00:16:36;;;;;;;13.80;12.27;;;;;21.50;99646.00;;;;2062740;28;20792;-50
2022/11/19 00:17:36;;;;;;;13.73;11.97;;;;;21.50;99652.00;;;;2062526;28;20207;-50
2022/11/19 00:18:36;;;;;;;14.40;11.83;;;;;21.50;99648.00;;;;2062962;28;20277;-50
2022/11/19 00:19:37;;;;;;;12.07;10.83;;;;;21.50;99657.00;;;;2062936;28;20218;-49
2022/11/19 00:20:37;;;;;;;14.43;11.57;;;;;21.50;99649.00;;;;2062724;28;20223;-50
2022/11/19 00:21:37;;;;;;;12.63;11.10;;;;;21.50;99654.00;;;;2062437;28;20229;-49
2022/11/19 00:22:37;;;;;;;13.77;11.90;;;;;21.50;99656.00;;;;2061139;28;20222;-50
2022/11/19 00:23:38;;;;;;;12.83;11.23;;;;;21.50;99657.00;;;;2062678;28;20321;-49
2022/11/19 00:24:38;;;;;;;11.93;10.63;;;;;21.50;99653.00;;;;2062514;28;20214;-49
2022/11/19 00:25:39;;;;;;;12.40;11.10;;;;;21.50;99655.00;;;;2062852;28;20732;-50
2022/11/19 00:26:39;;;;;;;13.30;11.30;;;;;21.50;99654.00;;;;2062790;28;20773;-50
2022/11/19 00:27:39;;;;;;;11.17;9.97;;;;;21.50;99656.00;;;;2062645;28;20702;-49
2022/11/19 00:28:40;;;;;;;11.30;10.20;;;;;21.50;99662.00;;;;2062716;28;20211;-49
2022/11/19 00:29:40;;;;;;;11.90;10.30;;;;;21.50;99655.00;;;;2062886;28;20393;-49
2022/11/19 00:30:41;;;;;;;10.70;9.57;;;;;21.50;99655.00;;;;2062643;28;20427;-50
2022/11/19 00:31:41;;;;;;;11.30;10.10;;;;;21.50;99659.00;;;;2062609;28;20217;-49
2022/11/19 00:32:41;;;;;;;11.70;10.30;;;;;21.50;99649.00;;;;2062013;28;20211;-52
2022/11/19 00:33:42;;;;;;;11.13;9.73;;;;;21.50;99653.00;;;;2063375;28;21061;-50
2022/11/19 00:34:42;;;;;;;11.00;9.67;;;;;21.50;99647.00;;;;2070887;28;20651;-49
2022/11/19 00:35:43;;;;;;;11.00;9.40;;;;;21.50;99651.00;;;;2070768;28;20820;-49
2022/11/19 00:36:43;;;;;;;10.27;9.17;;;;;21.40;99649.00;;;;2070769;28;20348;-49
2022/11/19 00:37:43;;;;;;;10.77;9.67;;;;;21.50;99649.00;;;;2069924;28;20221;-50
2022/11/19 00:38:44;;;;;;;11.33;9.53;;;;;21.50;99653.00;;;;2070414;28;20222;-50
2022/11/19 00:39:44;;;;;;;10.13;9.13;;;;;21.40;99647.00;;;;2070727;28;20214;-50
2022/11/19 00:40:44;;;;;;;10.00;9.00;;;;;21.40;99647.00;;;;2070788;28;20220;-50
2022/11/19 00:41:45;;;;;;;9.83;8.87;;;;;21.40;99649.00;;;;2069808;28;20214;-49
2022/11/19 00:43:45;;;;;;;9.70;8.37;;;;;21.40;99652.00;;;;2070135;28;20352;-50
2022/11/19 00:44:06;;;;;;;10.52;8.73;;;;;21.40;99652.00;;;;2070239;28;20690;-50
2022/11/19 00:45:07;;;;;;;9.60;7.57;;;;;21.40;99656.00;;;;2070656;28;20214;-49
2022/11/19 00:46:08;;;;;;;9.20;8.30;;;;;21.40;99647.00;;;;2070098;28;20313;-49
2022/11/19 00:47:08;;;;;;;9.23;8.23;;;;;21.40;99653.00;;;;2069822;28;20226;-50
2022/11/19 00:48:08;;;;;;;8.90;8.03;;;;;21.40;99658.00;;;;2069097;28;20226;-50
2022/11/19 00:49:09;;;;;;;9.63;8.53;;;;;21.40;99651.00;;;;2070917;28;20241;-49
2022/11/19 00:50:09;;;;;;;8.30;7.47;;;;;21.40;99661.00;;;;2070178;28;22526;-55
2022/11/19 00:51:09;;;;;;;7.80;7.00;;;;;21.40;99656.00;;;;2070807;28;20214;-51
2022/11/19 00:52:10;;;;;;;9.17;7.90;;;;;21.40;99659.00;;;;2069798;28;20716;-52
2022/11/19 00:53:10;;;;;;;8.77;7.50;;;;;21.40;99656.00;;;;2070115;28;20217;-51
2022/11/19 00:54:10;;;;;;;8.40;7.20;;;;;21.40;99661.00;;;;2070696;28;20210;-50
2022/11/19 00:55:11;;;;;;;8.23;7.40;;;;;21.40;99655.00;;;;2067820;28;20226;-50
2022/11/19 00:56:13;;;;;;;8.40;7.60;;;;;21.40;99660.00;;;;2062467;28;20309;-50
2022/11/19 00:57:13;;;;;;;8.70;7.80;;;;;21.40;99660.00;;;;2062357;28;20219;-50
2022/11/19 00:58:13;;;;;;;8.83;7.60;;;;;21.40;99661.00;;;;2062333;28;20223;-50
2022/11/19 00:59:14;;;;;;;8.63;7.70;;;;;21.40;99658.00;;;;2062244;28;20292;-49
2022/11/19 01:00:15;;;;;;;8.27;7.47;;;;;21.40;99656.00;;;;2062472;28;20587;-49
2022/11/19 01:01:16;;;;;;;7.40;6.63;;;;;21.40;99667.00;;;;2062365;28;20793;-49
2022/11/19 01:02:16;;;;;;;7.78;6.85;;;;;21.40;99669.00;;;;2061799;28;20544;-50
2022/11/19 01:03:17;;;;;;;7.60;6.80;;;;;21.40;99670.00;;;;2062517;28;20210;-50
2022/11/19 01:04:17;;;;;;;7.50;6.80;;;;;21.40;99676.00;;;;2055708;28;20215;-50
2022/11/19 01:05:18;;;;;;;7.73;6.90;;;;;21.40;99682.00;;;;2062222;28;20714;-50
2022/11/19 01:06:19;;;;;;;7.73;6.93;;;;;21.40;99672.00;;;;2062104;28;20210;-49
2022/11/19 01:07:19;;;;;;;7.75;6.95;;;;;21.30;99676.00;;;;2062096;28;20227;-50
2022/11/19 01:08:20;;;;;;;8.20;7.07;;;;;21.40;99676.00;;;;2062624;28;20207;-49
2022/11/19 01:09:20;;;;;;;7.27;6.57;;;;;21.40;99676.00;;;;2062475;28;20215;-49
2022/11/19 01:10:20;;;;;;;6.30;5.70;;;;;21.40;99678.00;;;;2062800;28;20217;-50
2022/11/19 01:11:26;;;;;;;7.30;6.53;;;;;21.40;99676.00;;;;2062071;28;20237;-49
2022/11/19 01:12:26;;;;;;;6.95;6.25;;;;;21.40;99680.00;;;;2061721;28;20753;-50
2022/11/19 01:13:35;;;;;;;7.57;6.80;;;;;21.40;99682.00;;;;2062210;28;20219;-50
2022/11/19 01:14:36;;;;;;;6.88;6.18;;;;;21.40;99682.00;;;;2062391;28;20242;-49
2022/11/19 01:15:36;;;;;;;6.63;5.93;;;;;21.40;99690.00;;;;2062278;28;20218;-49
2022/11/19 01:16:40;;;;;;;7.50;6.70;;;;;21.30;99677.00;;;;2062333;28;20211;-49
2022/11/19 01:17:40;;;;;;;8.98;6.22;;;;;21.30;99679.00;;;;2062573;28;20223;-49
2022/11/19 01:18:41;;;;;;;6.90;6.23;;;;;21.30;99690.00;;;;2062711;28;20223;-49
2022/11/19 01:19:41;;;;;;;6.73;6.13;;;;;21.30;99690.00;;;;2054729;28;20265;-49
2022/11/19 01:20:41;;;;;;;7.20;6.03;;;;;21.30;99687.00;;;;2062513;28;20227;-49
2022/11/19 01:21:42;;;;;;;7.20;6.20;;;;;21.30;99704.00;;;;2061441;28;20222;-50
2022/11/19 01:22:42;;;;;;;8.07;5.93;;;;;21.30;99694.00;;;;2061547;28;20707;-49
2022/11/19 01:23:43;;;;;;;7.07;6.47;;;;;21.30;99695.00;;;;2062627;28;20203;-49
2022/11/19 01:24:43;;;;;;;6.27;5.67;;;;;21.30;99695.00;;;;2062474;28;20719;-49
2022/11/19 01:25:43;;;;;;;7.10;5.70;;;;;21.30;99697.00;;;;2064239;28;20796;-49
2022/11/19 01:26:43;;;;;;;6.50;5.80;;;;;21.30;99699.00;;;;2063956;28;20566;-49
2022/11/19 01:27:44;;;;;;;6.10;5.50;;;;;21.30;99698.00;;;;2064141;28;20558;-49
2022/11/19 01:28:44;;;;;;;6.57;5.97;;;;;21.30;99698.00;;;;2064156;28;20662;-49
2022/11/19 01:29:44;;;;;;;6.40;5.80;;;;;21.30;99704.00;;;;2064029;28;20683;-50
2022/11/19 01:30:45;;;;;;;6.80;6.10;;;;;21.20;99696.00;;;;2064018;28;20215;-49
2022/11/19 01:31:45;;;;;;;6.20;5.60;;;;;21.30;99700.00;;;;2063745;28;20221;-50
2022/11/19 01:32:45;;;;;;;5.83;5.33;;;;;21.20;99699.00;;;;2062955;28;20626;-54
2022/11/19 01:33:46;;;;;;;7.03;5.83;;;;;21.20;99707.00;;;;2063844;28;20217;-54
2022/11/19 01:34:46;;;;;;;6.40;5.80;;;;;21.20;99700.00;;;;2064160;28;20214;-51
2022/11/19 01:36:00;;;;;;;6.33;5.73;;;;;21.30;99704.00;;;;2063998;28;20302;-49
2022/11/19 01:37:00;;;;;;;6.57;5.90;;;;;21.20;99706.00;;;;2063887;28;20203;-49
2022/11/19 01:38:01;;;;;;;5.97;5.37;;;;;21.20;99702.00;;;;2063657;28;20293;-49
2022/11/19 01:39:01;;;;;;;5.57;5.00;;;;;21.20;99711.00;;;;2064091;28;20289;-49
2022/11/19 01:40:02;;;;;;;5.80;5.27;;;;;21.20;99706.00;;;;2063161;28;20536;-50
2022/11/19 01:41:02;;;;;;;6.10;5.50;;;;;21.20;99704.00;;;;2054954;28;20219;-50
2022/11/19 01:42:03;;;;;;;5.70;5.20;;;;;21.20;99700.00;;;;2062313;28;20230;-49
2022/11/19 01:43:03;;;;;;;4.90;4.40;;;;;21.20;99705.00;;;;2063700;28;20302;-49
2022/11/19 01:44:05;;;;;;;6.90;4.90;;;;;21.20;99703.00;;;;2063921;28;20218;-49
2022/11/19 01:45:06;;;;;;;6.53;5.93;;;;;21.30;99701.00;;;;2063950;28;20221;-49
2022/11/19 01:46:06;;;;;;;5.87;5.27;;;;;21.30;99707.00;;;;2064094;28;20218;-49
2022/11/19 01:47:07;;;;;;;6.07;5.47;;;;;21.20;99699.00;;;;2063866;28;21083;-49
2022/11/19 01:48:21;;;;;;;4.90;4.50;;;;;21.20;99702.00;;;;2063832;28;20233;-50
2022/11/19 01:49:21;;;;;;;5.53;5.03;;;;;21.20;99698.00;;;;2063620;28;20214;-50
2022/11/19 01:50:22;;;;;;;5.90;5.30;;;;;21.20;99705.00;;;;2063859;28;20214;-49
2022/11/19 01:51:31;;;;;;;4.80;4.40;;;;;21.20;99710.00;;;;2054962;28;20310;-49
2022/11/19 01:52:32;;;;;;;5.00;4.57;;;;;21.20;99702.00;;;;2055580;28;20348;-49
2022/11/19 01:53:32;;;;;;;5.77;5.07;;;;;21.20;99707.00;;;;2062481;28;20758;-49
2022/11/19 01:54:42;;;;;;;5.50;5.00;;;;;21.20;99711.00;;;;2055150;28;20687;-49
2022/11/19 01:55:42;;;;;;;6.00;5.40;;;;;21.20;99713.00;;;;2058103;28;20294;-49
2022/11/19 01:56:42;;;;;;;5.37;4.83;;;;;21.10;99716.00;;;;2047213;28;20216;-50
2022/11/19 01:57:43;;;;;;;5.10;4.70;;;;;21.20;99714.00;;;;2054501;28;20219;-49
2022/11/19 01:58:44;;;;;;;5.10;4.50;;;;;21.20;99713.00;;;;2063856;28;20571;-50
2022/11/19 01:59:48;;;;;;;5.50;5.00;;;;;21.20;99715.00;;;;2062358;28;20250;-49
2022/11/19 02:00:49;;;;;;;5.30;4.80;;;;;21.20;99714.00;;;;2055522;28;20298;-50
2022/11/19 02:01:49;;;;;;;5.27;4.87;;;;;21.10;99719.00;;;;2060867;28;20774;-50
2022/11/19 02:02:49;;;;;;;5.20;4.70;;;;;21.20;99717.00;;;;2064607;28;20603;-50
2022/11/19 02:03:50;;;;;;;5.80;5.13;;;;;21.10;99718.00;;;;2071677;28;20268;-49
2022/11/19 02:04:51;;;;;;;4.40;4.00;;;;;21.10;99711.00;;;;2071544;28;20717;-50
2022/11/19 02:05:51;;;;;;;5.00;4.60;;;;;21.10;99713.00;;;;2068360;28;20211;-49
2022/11/19 02:06:52;;;;;;;5.30;4.80;;;;;21.10;99716.00;;;;2062734;28;20238;-50
2022/11/19 02:07:54;;;;;;;5.20;4.70;;;;;21.10;99721.00;;;;2054996;28;20274;-50
2022/11/19 02:08:54;;;;;;;5.13;4.63;;;;;21.10;99721.00;;;;2063182;28;20217;-50
2022/11/19 02:09:55;;;;;;;5.20;4.70;;;;;21.10;99724.00;;;;2063619;28;20203;-49
2022/11/19 02:11:20;;;;;;;5.23;4.53;;;;;21.10;99724.00;;;;2063004;28;20233;-49
2022/11/19 02:12:33;;;;;;;4.88;4.45;;;;;21.10;99728.00;;;;2062441;28;20449;-49
2022/11/19 02:13:57;;;;;;;5.93;5.35;;;;;21.10;99731.00;;;;2063473;28;20207;-50
2022/11/19 02:14:57;;;;;;;5.45;4.85;;;;;21.10;99728.00;;;;2054433;28;20214;-49
2022/11/19 02:16:10;;;;;;;5.00;4.60;;;;;21.10;99723.00;;;;2056289;28;20767;-49
2022/11/19 02:17:20;;;;;;;5.85;5.03;;;;;21.10;99728.00;;;;2062318;28;20218;-49
2022/11/19 02:18:34;;;;;;;5.70;5.07;;;;;21.20;99731.00;;;;2058138;28;20274;-50
2022/11/19 02:19:56;;;;;;;5.30;4.80;;;;;21.10;99730.00;;;;2056549;28;20222;-49
2022/11/19 02:21:04;;;;;;;5.57;5.07;;;;;21.10;99732.00;;;;2065407;28;20584;-50
2022/11/19 02:22:32;;;;;;;5.25;4.75;;;;;21.10;99727.00;;;;2069347;28;20796;-50
2022/11/19 02:23:57;;;;;;;5.78;5.28;;;;;21.10;99736.00;;;;2070685;28;20210;-49
2022/11/19 02:25:23;;;;;;;5.28;4.78;;;;;21.10;99732.00;;;;2071079;28;20273;-49
2022/11/19 02:26:30;;;;;;;5.72;4.65;;;;;21.10;99732.00;;;;2070861;28;20543;-51
2022/11/19 02:27:47;;;;;;;5.85;5.35;;;;;21.00;99731.00;;;;2070384;28;20226;-50
2022/11/19 02:29:26;;;;;;;5.03;4.53;;;;;21.10;99731.00;;;;2064651;28;20222;-49
2022/11/19 02:30:29;;;;;;;4.95;4.50;;;;;21.10;99739.00;;;;2060283;28;20704;-50
2022/11/19 02:31:32;;;;;;;5.75;5.25;;;;;21.00;99738.00;;;;2061698;28;20656;-49
2022/11/19 02:32:42;;;;;;;5.85;5.35;;;;;21.00;99743.00;;;;2061464;28;20590;-50
2022/11/19 02:33:58;;;;;;;5.07;4.68;;;;;21.10;99735.00;;;;2054588;28;20896;-49
2022/11/19 02:35:03;;;;;;;5.28;4.78;;;;;21.00;99738.00;;;;2055544;28;20334;-49
2022/11/19 02:36:13;;;;;;;5.05;4.55;;;;;20.90;99725.00;;;;2055359;28;20827;-49
2022/11/19 02:37:28;;;;;;;5.40;4.90;;;;;21.00;99735.00;;;;2048899;28;20220;-49
2022/11/19 02:38:28;;;;;;;5.45;4.95;;;;;21.00;99746.00;;;;2065075;28;20214;-49
2022/11/19 02:39:33;;;;;;;5.17;4.40;;;;;21.00;99738.00;;;;2070087;28;20741;-50
2022/11/19 02:40:41;;;;;;;5.10;4.70;;;;;21.00;99734.00;;;;2070361;28;20218;-50
2022/11/19 02:42:01;;;;;;;5.25;4.75;;;;;21.00;99738.00;;;;2049359;28;20613;-50
2022/11/19 02:43:09;;;;;;;5.82;5.32;;;;;21.00;99735.00;;;;2048758;28;20224;-49
2022/11/19 02:45:56;;;;;;;5.75;5.25;;;;;21.00;99739.00;;;;2070507;28;20233;-49
2022/11/19 02:46:57;;;;;;;5.72;5.22;;;;;21.00;99742.00;;;;2061617;28;20223;-51
2022/11/19 02:48:09;;;;;;;5.50;5.00;;;;;21.00;99738.00;;;;2054039;28;20219;-50
2022/11/19 02:49:09;;;;;;;6.55;5.75;;;;;21.00;99727.00;;;;2070314;28;20260;-50
2022/11/19 02:50:20;;;;;;;6.20;5.63;;;;;21.00;99743.00;;;;2062325;28;20215;-50
2022/11/19 02:51:21;;;;;;;6.43;5.82;;;;;21.00;99734.00;;;;2057434;28;20302;-49
2022/11/19 02:52:21;;;;;;;6.60;5.97;;;;;21.00;99744.00;;;;2061715;28;20297;-50
2022/11/19 02:53:22;;;;;;;5.77;5.27;;;;;21.00;99747.00;;;;2061921;28;20349;-50
2022/11/19 02:54:24;;;;;;;6.13;5.50;;;;;21.00;99711.00;;;;2070612;28;20214;-50
2022/11/19 02:55:25;;;;;;;5.88;5.30;;;;;21.00;99751.00;;;;2067147;28;20697;-50
2022/11/19 02:56:46;;;;;;;6.30;5.70;;;;;21.00;99748.00;;;;2059213;28;20301;-49
2022/11/19 02:58:00;;;;;;;6.05;5.55;;;;;21.00;99752.00;;;;2070002;28;20218;-49
2022/11/19 03:04:36;;;;;;;6.45;5.85;;;;;21.00;99746.00;;;;2068990;28;20257;-49
2022/11/19 03:05:38;;;;;;;6.23;5.73;;;;;21.00;99756.00;;;;2070884;28;20787;-49
2022/11/19 03:06:38;;;;;;;5.93;5.43;;;;;21.00;99743.00;;;;2062410;28;20225;-49
2022/11/19 03:07:38;;;;;;;6.30;5.80;;;;;21.00;99732.00;;;;2062424;28;20607;-49
2022/11/19 03:08:39;;;;;;;6.00;5.40;;;;;20.90;99751.00;;;;2070484;28;20630;-49
2022/11/19 03:09:41;;;;;;;6.40;5.87;;;;;21.00;99746.00;;;;2070149;28;20613;-49
2022/11/19 03:10:46;;;;;;;6.25;5.70;;;;;20.90;99745.00;;;;2071246;28;20209;-50
2022/11/19 03:11:51;;;;;;;5.95;5.45;;;;;20.90;99774.00;;;;2069796;28;20206;-48
2022/11/19 03:17:24;;;;;;;6.28;5.75;;;;;20.90;99738.00;;;;2067717;28;20257;-49
2022/11/19 03:18:31;;;;;;;6.40;5.90;;;;;20.90;99748.00;;;;2070224;28;20210;-49
2022/11/19 03:19:50;;;;;;;6.95;6.32;;;;;20.90;99743.00;;;;2070723;28;20232;-50
2022/11/19 03:20:54;;;;;;;6.28;5.70;;;;;20.90;99738.00;;;;2070931;28;20218;-49
2022/11/19 03:22:09;;;;;;;5.95;5.32;;;;;20.90;99747.00;;;;2069643;28;20207;-49
2022/11/19 03:23:32;;;;;;;8.15;6.05;;;;;20.90;99693.00;;;;2056501;28;20222;-49
2022/11/19 03:24:39;;;;;;;6.13;5.55;;;;;20.90;99746.00;;;;2062848;28;20221;-51
2022/11/19 03:25:43;;;;;;;5.93;5.43;;;;;20.90;99751.00;;;;2062921;28;20294;-49
2022/11/19 03:26:47;;;;;;;7.35;6.75;;;;;20.90;99744.00;;;;2062350;28;20226;-49
2022/11/19 03:27:49;;;;;;;6.35;5.85;;;;;20.90;99755.00;;;;2062564;28;20210;-49
2022/11/19 03:28:50;;;;;;;6.45;5.72;;;;;20.90;99752.00;;;;2070211;28;20210;-49
2022/11/19 03:29:52;;;;;;;6.13;5.57;;;;;20.90;99768.00;;;;2061339;28;20887;-49
2022/11/19 03:30:52;;;;;;;6.22;5.72;;;;;20.90;99749.00;;;;2054302;28;20207;-49
2022/11/19 03:31:57;;;;;;;5.90;5.40;;;;;20.90;99761.00;;;;2053435;28;20227;-49
2022/11/19 03:33:03;;;;;;;6.75;5.70;;;;;20.90;99760.00;;;;2053584;28;20212;-49
2022/11/19 03:34:07;;;;;;;5.60;5.20;;;;;20.90;99766.00;;;;2061858;28;20226;-53
2022/11/19 03:35:09;;;;;;;6.20;5.70;;;;;20.90;99753.00;;;;2062306;28;20244;-49
2022/11/19 03:36:11;;;;;;;6.05;5.55;;;;;20.90;99751.00;;;;2062117;28;20219;-49
2022/11/19 03:37:11;;;;;;;6.25;5.75;;;;;20.90;99753.00;;;;2069799;28;20230;-49
2022/11/19 03:38:15;;;;;;;6.00;5.47;;;;;20.80;99747.00;;;;2070564;28;20218;-49
2022/11/19 03:39:16;;;;;;;6.25;5.75;;;;;20.80;99745.00;;;;2069555;28;20229;-48
2022/11/19 03:40:17;;;;;;;6.68;6.07;;;;;20.80;99747.00;;;;2061574;28;20707;-49
2022/11/19 03:41:18;;;;;;;6.60;5.93;;;;;20.90;99764.00;;;;2060953;28;20231;-48
2022/11/19 03:42:18;;;;;;;6.53;6.03;;;;;20.80;99756.00;;;;2068866;28;20218;-49
2022/11/19 03:43:19;;;;;;;6.73;6.10;;;;;20.80;99756.00;;;;2070497;28;20237;-49
2022/11/19 03:44:23;;;;;;;6.63;6.07;;;;;20.80;99756.00;;;;2069870;28;20290;-49
2022/11/19 03:45:25;;;;;;;7.20;6.57;;;;;20.80;99743.00;;;;2069769;28;20206;-49
2022/11/19 03:46:26;;;;;;;5.70;5.20;;;;;20.90;99754.00;;;;2070027;28;20252;-48
2022/11/19 03:47:30;;;;;;;7.10;6.50;;;;;20.80;99750.00;;;;2061813;28;20691;-49
2022/11/19 03:48:30;;;;;;;7.03;6.43;;;;;20.80;99759.00;;;;2062426;28;20222;-49
2022/11/19 03:49:36;;;;;;;6.67;6.13;;;;;20.80;99759.00;;;;2060254;28;20576;-49
2022/11/19 03:50:42;;;;;;;7.07;6.47;;;;;20.80;99763.00;;;;2062357;28;20215;-50
2022/11/19 03:51:54;;;;;;;7.00;5.70;;;;;20.80;99758.00;;;;2070067;28;20277;-49
2022/11/19 03:52:55;;;;;;;6.65;6.05;;;;;20.80;99766.00;;;;2070018;28;20206;-49
2022/11/19 03:53:56;;;;;;;6.82;6.22;;;;;20.80;99766.00;;;;2062468;28;20277;-48
2022/11/19 03:54:56;;;;;;;6.57;5.97;;;;;20.80;99764.00;;;;2068900;28;20214;-48
2022/11/19 03:55:58;;;;;;;6.83;6.23;;;;;20.80;99764.00;;;;2062481;28;20242;-48
2022/11/19 03:56:58;;;;;;;7.13;6.43;;;;;20.80;99768.00;;;;2060340;28;20226;-49
2022/11/19 03:58:05;;;;;;;7.00;6.40;;;;;20.80;99764.00;;;;2060970;28;20707;-49
2022/11/19 03:59:08;;;;;;;7.10;6.50;;;;;20.80;99767.00;;;;2057784;28;20215;-49
2022/11/19 04:00:09;;;;;;;6.75;6.15;;;;;20.80;99769.00;;;;2062024;28;20218;-48
2022/11/19 04:01:10;;;;;;;6.90;6.20;;;;;20.80;99763.00;;;;2066635;28;20222;-49
2022/11/19 04:02:10;;;;;;;5.77;5.27;;;;;20.80;99768.00;;;;2070041;28;20484;-48
2022/11/19 04:03:11;;;;;;;6.43;5.83;;;;;20.80;99772.00;;;;2070398;28;20228;-49
2022/11/19 04:05:30;;;;;;;6.90;6.30;;;;;20.80;99768.00;;;;2071067;28;20218;-48
2022/11/19 04:06:30;;;;;;;7.03;6.33;;;;;20.80;99774.00;;;;2070129;28;20206;-48
2022/11/19 04:07:31;;;;;;;7.10;6.40;;;;;20.80;99766.00;;;;2070210;28;20245;-48
2022/11/19 04:08:31;;;;;;;7.87;6.33;;;;;20.80;99769.00;;;;2070645;28;20277;-49
2022/11/19 04:09:31;;;;;;;7.20;6.50;;;;;20.80;99773.00;;;;2071076;28;20214;-48
2022/11/19 04:10:32;;;;;;;6.50;6.00;;;;;20.70;99772.00;;;;2071013;28;20210;-48
2022/11/19 04:11:32;;;;;;;6.63;6.13;;;;;20.80;99767.00;;;;2063383;28;20219;-49
2022/11/19 04:12:32;;;;;;;6.73;6.00;;;;;20.70;99771.00;;;;2063327;28;20211;-48
2022/11/19 04:13:33;;;;;;;7.47;6.80;;;;;20.80;99768.00;;;;2070339;28;20280;-48
2022/11/19 04:14:33;;;;;;;6.70;6.10;;;;;20.80;99777.00;;;;2068214;28;20220;-48
2022/11/19 04:15:33;;;;;;;6.73;6.20;;;;;20.80;99776.00;;;;2062333;28;20265;-48
2022/11/19 04:16:34;;;;;;;7.03;6.43;;;;;20.80;99775.00;;;;2062817;28;20218;-48
2022/11/19 04:17:34;;;;;;;6.70;6.10;;;;;20.80;99782.00;;;;2066603;28;20229;-48
2022/11/19 04:18:34;;;;;;;6.40;5.80;;;;;20.70;99779.00;;;;2061792;28;20225;-48
2022/11/19 04:19:35;;;;;;;7.33;6.63;;;;;20.80;99786.00;;;;2062823;28;20226;-48
2022/11/19 04:20:35;;;;;;;7.10;6.50;;;;;20.80;99784.00;;;;2070498;28;20249;-48
2022/11/19 04:21:35;;;;;;;7.50;6.87;;;;;20.70;99789.00;;;;2071076;28;20698;-48
2022/11/19 04:22:36;;;;;;;7.37;6.70;;;;;20.70;99786.00;;;;2064199;28;20215;-48
2022/11/19 04:23:36;;;;;;;7.03;6.43;;;;;20.70;99795.00;;;;2062881;28;20325;-48
2022/11/19 04:24:36;;;;;;;7.43;6.63;;;;;20.70;99790.00;;;;2066677;28;20583;-49
2022/11/19 04:25:37;;;;;;;6.83;6.13;;;;;20.70;99788.00;;;;2071151;28;20983;-49
2022/11/19 04:26:37;;;;;;;7.57;6.87;;;;;20.70;99790.00;;;;2070982;28;20224;-49
2022/11/19 04:27:38;;;;;;;7.20;6.60;;;;;20.70;99798.00;;;;2064270;28;20225;-49
2022/11/19 04:28:38;;;;;;;7.20;6.60;;;;;20.70;99797.00;;;;2070473;28;20228;-49
2022/11/19 04:29:38;;;;;;;7.80;7.10;;;;;20.70;99789.00;;;;2070259;28;20237;-49
2022/11/19 04:30:39;;;;;;;8.40;7.60;;;;;20.70;99797.00;;;;2070601;28;20214;-49
2022/11/19 04:31:39;;;;;;;7.87;7.10;;;;;20.70;99797.00;;;;2071070;28;20241;-49
2022/11/19 04:32:40;;;;;;;6.97;6.37;;;;;20.70;99800.00;;;;2062887;28;20211;-49
2022/11/19 04:33:40;;;;;;;7.10;6.50;;;;;20.70;99803.00;;;;2062711;28;20235;-48
2022/11/19 04:34:40;;;;;;;6.67;6.07;;;;;20.70;99794.00;;;;2062921;28;20218;-48
2022/11/19 04:35:44;;;;;;;7.70;6.87;;;;;20.70;99802.00;;;;2062661;28;20225;-49
2022/11/19 04:36:44;;;;;;;6.95;6.35;;;;;20.70;99797.00;;;;2066204;28;20733;-49
2022/11/19 04:37:44;;;;;;;7.13;6.37;;;;;20.70;99803.00;;;;2066749;28;20207;-48
2022/11/19 04:38:45;;;;;;;7.47;6.77;;;;;20.60;99811.00;;;;2070956;28;20233;-48
2022/11/19 04:39:45;;;;;;;7.63;6.60;;;;;20.60;99805.00;;;;2068262;28;20277;-49
2022/11/19 04:40:45;;;;;;;7.50;6.80;;;;;20.60;99802.00;;;;2062534;28;20265;-49
2022/11/19 04:41:46;;;;;;;7.53;6.80;;;;;20.70;99813.00;;;;2066754;28;20221;-48
2022/11/19 04:42:46;;;;;;;7.20;6.60;;;;;20.70;99803.00;;;;2070363;28;20226;-49
2022/11/19 04:43:46;;;;;;;7.97;7.17;;;;;20.70;99802.00;;;;2070685;28;20222;-49
2022/11/19 04:44:47;;;;;;;7.40;6.80;;;;;20.70;99802.00;;;;2070371;28;20218;-49
2022/11/19 04:45:47;;;;;;;7.37;6.70;;;;;20.60;99798.00;;;;2066743;28;20231;-49
2022/11/19 04:46:47;;;;;;;6.90;6.30;;;;;20.70;99809.00;;;;2070642;28;20829;-49
2022/11/19 04:47:48;;;;;;;6.83;6.23;;;;;20.60;99807.00;;;;2070791;28;20218;-48
2022/11/19 04:48:48;;;;;;;6.70;6.10;;;;;20.60;99813.00;;;;2070415;28;20221;-49
2022/11/19 04:49:48;;;;;;;7.83;7.13;;;;;20.60;99808.00;;;;2070792;28;20218;-49
2022/11/19 04:50:49;;;;;;;9.43;7.90;;;;;20.60;99806.00;;;;2070688;28;20249;-49
2022/11/19 04:51:49;;;;;;;7.33;6.73;;;;;20.60;99808.00;;;;2069293;28;20217;-49
2022/11/19 04:52:49;;;;;;;7.83;7.13;;;;;20.60;99813.00;;;;2070565;28;20218;-49
2022/11/19 04:53:50;;;;;;;6.93;6.43;;;;;20.60;99802.00;;;;2070333;28;20222;-49
2022/11/19 04:54:50;;;;;;;7.77;7.07;;;;;20.70;99808.00;;;;2070679;28;20222;-48
2022/11/19 04:55:50;;;;;;;8.40;7.00;;;;;20.70;99812.00;;;;2054566;28;20226;-49
2022/11/19 04:56:51;;;;;;;7.23;6.70;;;;;20.60;99807.00;;;;2062150;28;20333;-49
2022/11/19 04:57:52;;;;;;;7.13;6.53;;;;;20.60;99819.00;;;;2062163;28;20230;-49
2022/11/19 04:58:52;;;;;;;7.55;6.85;;;;;20.60;99809.00;;;;2062449;28;20299;-48
2022/11/19 04:59:52;;;;;;;6.60;6.10;;;;;20.70;99812.00;;;;2061422;28;20683;-49
2022/11/19 05:00:53;;;;;;;8.00;7.30;;;;;20.60;99821.00;;;;2062187;28;20273;-49
2022/11/19 05:01:53;;;;;;;7.00;6.40;;;;;20.60;99825.00;;;;2060266;28;20733;-49
2022/11/19 05:02:53;;;;;;;7.90;7.20;;;;;20.60;99821.00;;;;2061258;28;20599;-48
2022/11/19 05:03:54;;;;;;;8.27;7.57;;;;;20.60;99822.00;;;;2061585;28;20699;-49
2022/11/19 05:04:54;;;;;;;7.50;6.90;;;;;20.60;99820.00;;;;2061421;28;20706;-49
2022/11/19 05:05:54;;;;;;;6.87;6.37;;;;;20.60;99823.00;;;;2061900;28;20674;-49
2022/11/19 05:06:55;;;;;;;7.33;6.73;;;;;20.60;99818.00;;;;2061479;28;20707;-48
2022/11/19 05:07:55;;;;;;;7.47;6.87;;;;;20.60;99826.00;;;;2061796;28;20305;-49
2022/11/19 05:08:55;;;;;;;7.60;7.00;;;;;20.60;99819.00;;;;2062092;28;20206;-47
2022/11/19 05:09:56;;;;;;;7.30;6.70;;;;;20.60;99823.00;;;;2062285;28;20242;-48
2022/11/19 05:10:56;;;;;;;7.20;6.60;;;;;20.60;99818.00;;;;2062268;28;20210;-49
2022/11/19 05:11:56;;;;;;;8.00;7.40;;;;;20.60;99825.00;;;;2061387;28;20214;-49
2022/11/19 05:12:57;;;;;;;7.20;6.60;;;;;20.60;99819.00;;;;2061920;28;20255;-49
2022/11/19 05:13:57;;;;;;;8.03;7.33;;;;;20.60;99812.00;;;;2061690;28;20226;-49
2022/11/19 05:14:57;;;;;;;6.90;6.30;;;;;20.60;99817.00;;;;2062010;28;20215;-49
2022/11/19 05:15:58;;;;;;;7.90;7.20;;;;;20.60;99825.00;;;;2057262;28;20217;-49
2022/11/19 05:16:58;;;;;;;7.20;6.60;;;;;20.60;99823.00;;;;2069580;28;20214;-48
2022/11/19 05:17:58;;;;;;;7.27;6.67;;;;;20.60;99825.00;;;;2059438;28;20401;-49
2022/11/19 05:18:58;;;;;;;7.30;6.70;;;;;20.60;99821.00;;;;2061484;28;20266;-48
2022/11/19 05:19:59;;;;;;;7.63;6.90;;;;;20.60;99829.00;;;;2065996;28;20225;-48
2022/11/19 05:20:59;;;;;;;7.90;7.20;;;;;20.60;99825.00;;;;2069770;28;20317;-49
2022/11/19 05:21:59;;;;;;;8.60;7.70;;;;;20.60;99830.00;;;;2069427;28;20706;-49
2022/11/19 05:23:00;;;;;;;8.13;7.43;;;;;20.60;99834.00;;;;2069757;28;20194;-49
2022/11/19 05:24:00;;;;;;;7.50;6.90;;;;;20.60;99845.00;;;;2069661;28;20210;-49
2022/11/19 05:25:01;;;;;;;8.20;7.50;;;;;20.60;99839.00;;;;2070195;28;20202;-49
2022/11/19 05:26:01;;;;;;;7.47;6.77;;;;;20.60;99841.00;;;;2064978;28;20219;-48
2022/11/19 05:27:02;;;;;;;7.97;7.37;;;;;20.60;99843.00;;;;2062151;28;20219;-48
2022/11/19 05:28:02;;;;;;;7.93;7.27;;;;;20.60;99839.00;;;;2062027;28;20290;-49